Terminal Aerodrome Forecast
Issued by NWS

Home | Current Version | Previous Version | Text Only | Print | Product List | Glossary On
Versions: 1 2 3 4 5 6 7 8 9 10 11 12 13 14 15 16 17 18 19 20 21 22 23
820
FTUS43 KSGF 211045 AAA
TAFJLN
TAF AMD
KJLN 211045Z 2111/2206 19015KT P6SM BKN025 WS020/20045KT
     FM211400 19021G30KT P6SM BKN015 OVC025
     FM212300 19018G26KT P6SM VCSH BKN030=

USA.gov is the U.S. government's official web portal to all federal, state and local government web resources and services.